createdAt,value
2022-10-26T00:01:08.129Z,13.67
2022-10-26T00:04:10.788Z,13.72
2022-10-26T00:07:13.394Z,13.70
2022-10-26T00:10:16.468Z,13.67
2022-10-26T00:13:20.386Z,13.65
2022-10-26T00:16:24.298Z,13.69
2022-10-26T00:19:27.050Z,13.74
2022-10-26T00:22:29.762Z,13.80
2022-10-26T00:25:32.394Z,13.83
2022-10-26T00:28:36.994Z,13.84
2022-10-26T00:31:39.768Z,13.85
2022-10-26T00:34:42.432Z,13.83
2022-10-26T00:37:45.253Z,13.86
2022-10-26T00:40:48.083Z,13.87
2022-10-26T00:43:52.767Z,13.91
2022-10-26T00:46:55.465Z,14.01
2022-10-26T00:50:02.938Z,14.02
2022-10-26T00:53:06.598Z,14.05
2022-10-26T00:56:09.617Z,14.04
2022-10-26T00:59:14.414Z,14.08
2022-10-26T01:02:17.444Z,14.09
2022-10-26T01:05:20.422Z,14.08
2022-10-26T01:08:23.855Z,14.09
2022-10-26T01:11:26.546Z,14.10
2022-10-26T01:14:31.933Z,14.10
2022-10-26T01:17:44.772Z,14.12
2022-10-26T01:21:38.625Z,14.12
2022-10-26T01:24:54.139Z,14.09
2022-10-26T01:27:57.251Z,14.04
2022-10-26T01:31:03.117Z,14.00
2022-10-26T01:34:10.311Z,13.98
2022-10-26T01:37:15.193Z,13.92
2022-10-26T01:40:22.697Z,13.95
2022-10-26T01:43:26.590Z,13.95
2022-10-26T01:46:34.671Z,13.98
2022-10-26T01:49:40.674Z,14.01
2022-10-26T01:52:43.337Z,14.03
2022-10-26T01:55:49.544Z,13.98
2022-10-26T01:59:05.650Z,13.98
2022-10-26T02:02:30.852Z,13.98
2022-10-26T02:05:42.196Z,13.89
2022-10-26T02:08:58.394Z,13.80
2022-10-26T02:12:04.464Z,13.74
2022-10-26T02:15:08.793Z,13.65
2022-10-26T02:18:19.464Z,13.57
2022-10-26T02:21:26.671Z,13.50
2022-10-26T02:24:29.840Z,13.44
2022-10-26T02:27:36.108Z,13.51
2022-10-26T02:30:40.570Z,13.58
2022-10-26T02:36:50.640Z,13.65
2022-10-26T02:39:54.036Z,13.62
2022-10-26T02:43:00.458Z,13.63
2022-10-26T02:46:06.528Z,13.59
2022-10-26T02:49:10.491Z,13.65
2022-10-26T02:52:18.409Z,13.65
2022-10-26T02:55:23.977Z,13.59
2022-10-26T02:58:28.992Z,13.47
2022-10-26T03:01:32.394Z,13.42
2022-10-26T03:04:36.902Z,13.39
2022-10-26T03:07:39.599Z,13.42
2022-10-26T03:10:43.711Z,13.51
2022-10-26T03:13:46.425Z,13.61
2022-10-26T03:16:49.077Z,13.65
2022-10-26T03:19:53.052Z,13.67
2022-10-26T03:22:56.973Z,13.73
2022-10-26T03:26:00.093Z,13.80
2022-10-26T03:29:02.818Z,13.77
2022-10-26T03:32:06.060Z,13.79
2022-10-26T03:35:10.457Z,13.79
2022-10-26T03:38:15.951Z,13.75
2022-10-26T03:41:18.893Z,13.84
2022-10-26T03:44:21.589Z,13.85
2022-10-26T03:47:24.423Z,13.87
2022-10-26T03:50:28.374Z,13.87
2022-10-26T03:53:31.171Z,13.89
2022-10-26T03:56:33.812Z,13.87
2022-10-26T03:59:37.233Z,13.88
2022-10-26T04:02:39.784Z,13.86
2022-10-26T04:05:43.937Z,13.85
2022-10-26T04:08:46.568Z,13.81
2022-10-26T04:11:49.436Z,13.81
2022-10-26T04:14:52.181Z,13.78
2022-10-26T04:17:58.934Z,13.82
2022-10-26T04:21:03.628Z,13.78
2022-10-26T04:24:06.848Z,13.86
2022-10-26T04:27:09.599Z,13.88
2022-10-26T04:30:13.718Z,13.87
2022-10-26T04:33:18.066Z,13.90
2022-10-26T04:36:22.034Z,13.96
2022-10-26T04:39:25.700Z,13.94
2022-10-26T04:42:28.409Z,13.98
2022-10-26T04:45:31.671Z,13.97
2022-10-26T04:48:34.344Z,13.83
2022-10-26T04:51:38.336Z,13.83
2022-10-26T04:54:41.118Z,13.90
2022-10-26T04:57:46.241Z,13.89
2022-10-26T05:00:49.216Z,13.93
2022-10-26T05:03:53.150Z,13.91
2022-10-26T05:06:57.101Z,13.90
2022-10-26T05:09:59.750Z,13.97
2022-10-26T05:13:02.611Z,13.95
2022-10-26T05:16:05.937Z,13.97
2022-10-26T05:19:08.561Z,13.94
2022-10-26T05:22:12.799Z,13.94
2022-10-26T05:25:15.589Z,13.92
2022-10-26T05:28:19.024Z,13.87
2022-10-26T05:31:22.311Z,13.90
2022-10-26T05:34:25.036Z,13.95
2022-10-26T05:37:30.806Z,14.03
2022-10-26T05:40:33.492Z,14.07
2022-10-26T05:43:36.202Z,14.09
2022-10-26T05:46:38.846Z,14.08
2022-10-26T05:49:41.577Z,14.15
2022-10-26T05:52:46.986Z,14.18
2022-10-26T05:55:50.587Z,14.17
2022-10-26T05:58:53.683Z,14.22
2022-10-26T06:02:05.562Z,14.20
2022-10-26T06:05:11.098Z,14.19
2022-10-26T06:08:15.723Z,14.24
2022-10-26T06:11:19.296Z,14.27
2022-10-26T06:14:22.074Z,14.30
2022-10-26T06:17:36.033Z,14.30
2022-10-26T06:20:47.737Z,14.34
2022-10-26T06:23:55.639Z,14.37
2022-10-26T06:27:06.513Z,14.37
2022-10-26T06:30:11.857Z,14.39
2022-10-26T06:33:29.001Z,14.44
2022-10-26T06:36:33.495Z,14.45
2022-10-26T06:39:37.924Z,14.52
2022-10-26T06:42:41.063Z,14.54
2022-10-26T06:45:46.752Z,14.44
2022-10-26T06:48:53.176Z,14.53
2022-10-26T06:51:58.906Z,14.43
2022-10-26T06:55:05.146Z,14.56
2022-10-26T06:58:10.397Z,14.60
2022-10-26T07:01:13.999Z,14.62
2022-10-26T07:04:16.497Z,14.69
2022-10-26T07:07:20.278Z,14.72
2022-10-26T07:10:24.218Z,14.66
2022-10-26T07:13:26.802Z,14.80
2022-10-26T07:16:29.527Z,15.18
2022-10-26T07:19:32.254Z,15.58
2022-10-26T07:22:34.855Z,15.98
2022-10-26T07:25:40.583Z,16.31
2022-10-26T07:28:43.389Z,16.51
2022-10-26T07:31:46.123Z,16.77
2022-10-26T07:34:48.898Z,16.88
2022-10-26T07:37:51.496Z,17.07
2022-10-26T07:40:55.962Z,17.12
2022-10-26T07:43:58.790Z,17.18
2022-10-26T07:47:01.648Z,17.26
2022-10-26T07:50:05.934Z,17.36
2022-10-26T07:53:08.627Z,17.36
2022-10-26T07:56:12.791Z,17.41
2022-10-26T07:59:15.744Z,17.56
2022-10-26T08:02:19.166Z,17.52
2022-10-26T08:05:21.772Z,17.77
2022-10-26T08:08:24.488Z,17.99
2022-10-26T08:11:28.712Z,17.89
2022-10-26T08:14:31.589Z,17.98
2022-10-26T08:17:34.317Z,18.27
2022-10-26T08:20:36.984Z,18.48
2022-10-26T08:23:40.095Z,18.38
2022-10-26T08:26:44.308Z,18.32
2022-10-26T08:29:46.911Z,18.59
2022-10-26T08:32:49.809Z,18.64
2022-10-26T08:35:56.628Z,18.86
2022-10-26T08:42:08.597Z,18.97
2022-10-26T08:45:15.335Z,18.72
2022-10-26T08:48:20.829Z,18.75
2022-10-26T08:51:25.285Z,18.69
2022-10-26T08:54:35.996Z,18.79
2022-10-26T08:57:42.392Z,18.82
2022-10-26T09:00:46.405Z,19.07
2022-10-26T09:03:49.021Z,19.38
2022-10-26T09:06:58.260Z,19.81
2022-10-26T09:10:05.913Z,20.19
2022-10-26T09:13:20.607Z,20.23
2022-10-26T09:16:29.098Z,20.52
2022-10-26T09:19:50.616Z,20.80
2022-10-26T09:22:57.976Z,20.96
2022-10-26T09:26:01.897Z,21.11
2022-10-26T09:29:07.027Z,20.76
2022-10-26T09:32:14.499Z,20.66
2022-10-26T09:35:20.143Z,20.68
2022-10-26T09:38:26.341Z,20.64
2022-10-26T09:41:33.003Z,20.27
2022-10-26T09:44:40.519Z,19.90
2022-10-26T09:47:46.083Z,20.26
2022-10-26T09:50:51.421Z,20.48
2022-10-26T09:53:55.170Z,20.81
2022-10-26T09:57:01.767Z,21.41
2022-10-26T10:00:07.383Z,21.39
2022-10-26T10:03:19.774Z,21.73
2022-10-26T10:06:25.815Z,21.89
2022-10-26T10:09:28.647Z,21.64
2022-10-26T10:12:31.282Z,21.94
2022-10-26T10:15:35.535Z,21.67
2022-10-26T10:18:39.123Z,22.07
2022-10-26T10:21:46.155Z,22.40
2022-10-26T10:24:55.478Z,22.67
2022-10-26T10:27:58.107Z,22.48
2022-10-26T10:31:03.613Z,22.35
2022-10-26T10:34:17.454Z,22.91
2022-10-26T10:37:25.566Z,22.87
2022-10-26T10:40:30.742Z,23.21
2022-10-26T10:43:33.921Z,23.37
2022-10-26T10:46:38.714Z,23.03
2022-10-26T10:49:42.656Z,23.26
2022-10-26T10:52:45.785Z,22.69
2022-10-26T10:59:09.782Z,23.02
2022-10-26T11:02:42.930Z,22.86
2022-10-26T11:05:53.664Z,22.71
2022-10-26T11:09:00.773Z,22.82
2022-10-26T11:12:05.513Z,23.12
2022-10-26T11:15:12.344Z,23.45
2022-10-26T11:18:19.527Z,24.02
2022-10-26T11:21:28.195Z,23.63
2022-10-26T11:24:34.529Z,23.34
2022-10-26T11:27:40.859Z,23.38
2022-10-26T11:30:47.526Z,23.79
2022-10-26T11:34:03.084Z,23.75
2022-10-26T11:37:10.483Z,24.01
2022-10-26T11:40:23.891Z,23.69
2022-10-26T11:43:32.235Z,24.03
2022-10-26T11:46:39.125Z,24.43
2022-10-26T11:49:46.220Z,24.80
2022-10-26T11:52:52.544Z,25.51
2022-10-26T11:55:56.450Z,26.00
2022-10-26T11:59:00.098Z,25.75
2022-10-26T12:02:06.000Z,25.64
2022-10-26T12:05:20.849Z,26.02
2022-10-26T12:08:27.622Z,25.63
2022-10-26T12:11:38.190Z,25.32
2022-10-26T12:14:44.162Z,25.29
2022-10-26T12:17:52.460Z,25.22
2022-10-26T12:21:02.663Z,25.46
2022-10-26T12:24:28.940Z,26.13
2022-10-26T12:27:33.641Z,26.34
2022-10-26T12:30:37.991Z,26.46
2022-10-26T12:33:50.545Z,26.48
2022-10-26T12:37:25.224Z,26.22
2022-10-26T12:40:42.907Z,25.81
2022-10-26T12:43:45.693Z,26.08
2022-10-26T12:46:48.387Z,25.22
2022-10-26T12:50:00.875Z,25.09
2022-10-26T12:53:09.322Z,25.07
2022-10-26T12:56:14.894Z,25.37
2022-10-26T12:59:29.220Z,25.35
2022-10-26T13:02:41.341Z,24.99
2022-10-26T13:06:00.231Z,25.56
2022-10-26T13:12:16.740Z,29.46
2022-10-26T13:15:20.808Z,29.07
2022-10-26T13:18:24.025Z,29.14
2022-10-26T13:21:27.643Z,29.43
2022-10-26T13:24:33.044Z,35.39
2022-10-26T13:27:43.731Z,37.23
2022-10-26T13:30:48.626Z,38.60
2022-10-26T13:33:52.664Z,39.77
2022-10-26T13:37:02.818Z,38.94
2022-10-26T13:40:08.379Z,38.24
2022-10-26T13:43:17.929Z,38.82
2022-10-26T13:46:25.411Z,39.41
2022-10-26T13:49:32.013Z,38.74
2022-10-26T13:52:37.061Z,36.60
2022-10-26T13:55:53.215Z,35.88
2022-10-26T13:59:00.658Z,33.98
2022-10-26T14:02:17.619Z,38.60
2022-10-26T14:05:20.686Z,40.45
2022-10-26T14:08:23.771Z,40.48
2022-10-26T14:11:33.804Z,39.84
2022-10-26T14:14:37.676Z,35.98
2022-10-26T14:17:40.276Z,30.54
2022-10-26T14:20:49.041Z,28.06
2022-10-26T14:23:55.799Z,26.64
2022-10-26T14:26:59.930Z,26.00
2022-10-26T14:30:21.698Z,26.02
2022-10-26T14:33:28.966Z,25.85
2022-10-26T14:36:35.099Z,25.68
2022-10-26T14:39:40.960Z,25.55
2022-10-26T14:42:50.076Z,25.62
2022-10-26T14:45:54.258Z,25.59
2022-10-26T14:48:58.437Z,27.50
2022-10-26T14:52:05.766Z,29.20
2022-10-26T14:55:14.691Z,32.51
2022-10-26T14:58:26.615Z,32.20
2022-10-26T15:01:36.135Z,33.68
2022-10-26T15:04:40.846Z,30.30
2022-10-26T15:07:44.693Z,31.54
2022-10-26T15:10:48.816Z,33.44
2022-10-26T15:13:53.799Z,33.75
2022-10-26T15:16:58.406Z,31.33
2022-10-26T15:20:04.633Z,27.85
2022-10-26T15:23:07.479Z,25.27
2022-10-26T15:26:11.080Z,24.07
2022-10-26T15:29:45.567Z,23.23
2022-10-26T15:32:48.816Z,22.65
2022-10-26T15:35:51.704Z,22.28
2022-10-26T15:38:55.611Z,21.87
2022-10-26T15:41:58.216Z,21.44
2022-10-26T15:45:02.224Z,21.07
2022-10-26T15:48:20.053Z,20.72
2022-10-26T15:51:22.723Z,20.37
2022-10-26T15:54:25.548Z,20.13
2022-10-26T15:57:28.451Z,19.87
2022-10-26T16:00:32.431Z,19.62
2022-10-26T16:03:35.104Z,19.46
2022-10-26T16:06:39.109Z,19.25
2022-10-26T16:09:42.137Z,19.00
2022-10-26T16:12:44.760Z,18.75
2022-10-26T16:15:48.918Z,18.62
2022-10-26T16:19:06.126Z,18.43
2022-10-26T16:22:14.826Z,18.29
2022-10-26T16:25:18.800Z,18.28
2022-10-26T16:28:21.436Z,18.21
2022-10-26T16:31:25.393Z,18.14
2022-10-26T16:34:28.122Z,18.06
2022-10-26T16:37:31.352Z,17.87
2022-10-26T16:40:33.930Z,17.74
2022-10-26T16:43:38.383Z,17.62
2022-10-26T16:46:42.410Z,17.44
2022-10-26T16:49:45.053Z,17.33
2022-10-26T16:52:47.978Z,17.20
2022-10-26T16:55:50.559Z,17.13
2022-10-26T16:58:53.298Z,17.18
2022-10-26T17:01:57.638Z,17.13
2022-10-26T17:05:04.165Z,17.02
2022-10-26T17:08:10.990Z,17.01
2022-10-26T17:11:14.745Z,16.92
2022-10-26T17:14:17.418Z,16.84
2022-10-26T17:17:21.341Z,16.85
2022-10-26T17:20:24.044Z,16.86
2022-10-26T17:23:26.779Z,16.83
2022-10-26T17:26:29.800Z,16.70
2022-10-26T17:29:32.494Z,16.67
2022-10-26T17:32:37.533Z,16.59
2022-10-26T17:35:40.288Z,16.51
2022-10-26T17:38:44.107Z,16.42
2022-10-26T17:41:47.459Z,16.32
2022-10-26T17:44:50.005Z,16.19
2022-10-26T17:47:54.306Z,16.20
2022-10-26T17:50:59.555Z,16.11
2022-10-26T17:54:02.182Z,16.06
2022-10-26T17:57:04.958Z,15.98
2022-10-26T18:00:08.829Z,15.88
2022-10-26T18:03:12.831Z,15.87
2022-10-26T18:06:17.194Z,15.77
2022-10-26T18:09:20.982Z,15.68
2022-10-26T18:12:24.523Z,15.63
2022-10-26T18:15:27.264Z,15.70
2022-10-26T18:18:33.095Z,15.70
2022-10-26T18:21:38.582Z,15.71
2022-10-26T18:24:41.683Z,15.81
2022-10-26T18:27:44.318Z,15.74
2022-10-26T18:30:47.118Z,15.62
2022-10-26T18:33:55.636Z,15.46
2022-10-26T18:36:58.464Z,15.44
2022-10-26T18:40:01.907Z,15.43
2022-10-26T18:43:04.488Z,15.43
2022-10-26T18:46:08.898Z,15.59
2022-10-26T18:49:14.017Z,15.57
2022-10-26T18:52:16.774Z,15.48
2022-10-26T18:55:19.418Z,15.38
2022-10-26T18:58:22.953Z,15.25
2022-10-26T19:01:27.242Z,15.17
2022-10-26T19:04:31.541Z,15.13
2022-10-26T19:07:34.700Z,15.13
2022-10-26T19:10:37.394Z,15.10
2022-10-26T19:13:40.254Z,14.97
2022-10-26T19:16:47.177Z,14.91
2022-10-26T19:19:51.912Z,14.92
2022-10-26T19:22:54.698Z,14.87
2022-10-26T19:25:57.343Z,14.94
2022-10-26T19:29:01.435Z,14.98
2022-10-26T19:32:04.912Z,14.90
2022-10-26T19:35:09.263Z,14.87
2022-10-26T19:38:12.832Z,14.77
2022-10-26T19:41:17.911Z,14.56
2022-10-26T19:44:25.326Z,14.39
2022-10-26T19:47:28.357Z,14.40
2022-10-26T19:50:33.951Z,14.44
2022-10-26T19:53:37.119Z,14.45
2022-10-26T19:56:39.991Z,14.62
2022-10-26T19:59:42.653Z,14.62
2022-10-26T20:02:47.071Z,14.43
2022-10-26T20:05:52.647Z,14.33
2022-10-26T20:08:55.564Z,14.39
2022-10-26T20:11:58.343Z,14.30
2022-10-26T20:15:06.869Z,14.28
2022-10-26T20:18:12.995Z,14.28
2022-10-26T20:21:17.947Z,14.07
2022-10-26T20:24:20.609Z,13.98
2022-10-26T20:27:25.243Z,13.90
2022-10-26T20:30:27.938Z,13.98
2022-10-26T20:33:30.654Z,14.00
2022-10-26T20:36:34.672Z,14.05
2022-10-26T20:39:38.912Z,14.06
2022-10-26T20:42:42.816Z,14.23
2022-10-26T20:45:46.404Z,14.24
2022-10-26T20:48:49.371Z,14.31
2022-10-26T20:52:19.632Z,14.36
2022-10-26T20:55:30.912Z,14.17
2022-10-26T20:58:38.960Z,14.03
2022-10-26T21:01:42.615Z,14.00
2022-10-26T21:04:45.648Z,14.04
2022-10-26T21:07:49.978Z,14.11
2022-10-26T21:10:53.058Z,14.00
2022-10-26T21:13:56.162Z,13.84
2022-10-26T21:16:58.881Z,13.71
2022-10-26T21:20:01.649Z,13.77
2022-10-26T21:23:05.754Z,13.82
2022-10-26T21:26:10.187Z,13.88
2022-10-26T21:29:12.980Z,13.90
2022-10-26T21:32:15.690Z,13.87
2022-10-26T21:35:18.452Z,13.73
2022-10-26T21:38:22.486Z,13.66
2022-10-26T21:44:40.927Z,13.62
2022-10-26T21:47:44.890Z,13.58
2022-10-26T21:50:47.499Z,13.51
2022-10-26T21:53:52.828Z,13.46
2022-10-26T21:56:55.460Z,13.49
2022-10-26T21:59:58.135Z,13.56
2022-10-26T22:03:00.920Z,13.64
2022-10-26T22:06:04.075Z,13.70
2022-10-26T22:09:08.563Z,13.65
2022-10-26T22:12:11.256Z,13.55
2022-10-26T22:15:13.989Z,13.49
2022-10-26T22:18:16.735Z,13.58
2022-10-26T22:21:20.737Z,13.55
2022-10-26T22:24:24.785Z,13.53
2022-10-26T22:27:28.986Z,13.43
2022-10-26T22:30:31.650Z,13.24
2022-10-26T22:33:34.688Z,13.21
2022-10-26T22:36:37.739Z,13.23
2022-10-26T22:39:41.773Z,13.21
2022-10-26T22:42:44.553Z,13.09
2022-10-26T22:45:59.837Z,13.11
2022-10-26T22:49:03.394Z,13.18
2022-10-26T22:52:05.997Z,13.19
2022-10-26T22:55:10.561Z,13.09
2022-10-26T22:58:13.266Z,13.13
2022-10-26T23:01:18.520Z,13.07
2022-10-26T23:04:21.265Z,13.01
2022-10-26T23:07:26.074Z,12.85
2022-10-26T23:10:30.204Z,12.89
2022-10-26T23:13:32.825Z,12.91
2022-10-26T23:16:35.430Z,12.89
2022-10-26T23:19:38.152Z,12.87
2022-10-26T23:22:40.811Z,12.92
2022-10-26T23:25:45.066Z,12.89
2022-10-26T23:28:48.197Z,12.82
2022-10-26T23:31:50.805Z,12.70
2022-10-26T23:34:53.527Z,12.68
2022-10-26T23:37:58.567Z,12.77
2022-10-26T23:41:02.710Z,12.74
2022-10-26T23:44:06.016Z,12.68
2022-10-26T23:47:08.683Z,12.70
2022-10-26T23:50:11.417Z,12.68
2022-10-26T23:53:15.982Z,12.65
2022-10-26T23:56:19.962Z,12.56
2022-10-26T23:59:22.644Z,12.56
